Impacts TAF Board
For situational awareness. Not to be used for flight planning purposes.
IDs:

KCXO - Conroe/Executive Arp, TX, US

Issued at 1744 UTC 22 Sep 2020
Updated at 2209 UTC 22 Sep 2020
Potential Impact None Slight Moderate High
Time2153Z 22/23Z 23/00Z 23/01Z 23/02Z 23/03Z 23/04Z 23/05Z 23/06Z 23/07Z 23/08Z 23/09Z 23/10Z 23/11Z>>
Type OBS PRVL PRVL PRVL PRVL PRVL PRVL PRVL PRVL PRVL PRVL PRVL PRVL PRVL
VIS 3 2 2 2 2 2 2 2 2 2 2 6 6 6
CIG 8 9 9 9 9 9 9 9 9 9 9 4 4 4
Cover OVC OVC OVC OVC OVC OVC OVC OVC OVC OVC OVC OVC OVC OVC
FltCat IFR IFR IFR IFR IFR IFR IFR IFR IFR IFR IFR LIFR LIFR LIFR
WX BR SHRA BR SHRA BR SHRA BR SHRA BR SHRA BR SHRA BR SHRA BR SHRA BR SHRA BR SHRA BR SHRA BR SHRA BR SHRA BR
WDir VRB 30 30 30 30 30 30 30 30 30 30 10 10 10
WSpd 6 8 8 8 8 8 8 8 8 8 8 8 8 8
WGst -- 15 15 15 15 15 15 15 15 15 15 14 14 14
Raw TAF
KCXO 221744Z 2218/2318 07010KT 5SM SHRA BR OVC006
  FM222000 06012KT 5SM SHRA BR OVC010
  FM222200 03008G15KT 2SM SHRA BR OVC009
  FM230900 01008G14KT 6SM SHRA BR OVC004


Raw METAR
KCXO 222153Z VRB06KT 3SM BR OVC008 24/23 A2984 RMK AO2 RAE45 CIG 006V013 SLP102 P0001 T02390228
KCXO 222053Z 05006KT 3SM -RA BR BKN008 OVC014 24/23 A2985 RMK AO2 RAB1959 SLP106 P0001 60005 T02390228 58013
KCXO 222045Z VRB05KT 2SM -RA BR BKN007 OVC015 24/23 A2986 RMK AO2 RAB1959 P0001 T02390228
KCXO 221953Z 05005KT 10SM OVC007 24/23 A2987 RMK AO2 RAE36 CIG 005V010 SLP112 P0000 T02390228

METAR Board
Radar Display
Forecast Discussion
For situational awareness. Not to be used for flight planning purposes.